createdAt,value
2018-06-23T14:34:00.079Z,2.15
2018-06-23T14:36:29.058Z,2.40
2018-06-23T14:38:58.178Z,2.15
2018-06-23T14:41:27.920Z,2.40
2018-06-23T14:43:57.288Z,1.50
2018-06-23T14:46:26.337Z,2.52
2018-06-23T14:48:57.897Z,1.90
2018-06-23T14:51:27.137Z,1.75
2018-06-23T14:53:57.701Z,1.82
2018-06-23T14:56:26.582Z,2.60
2018-06-23T14:58:55.626Z,2.67
2018-06-23T15:01:25.089Z,2.17
2018-06-23T15:03:54.204Z,2.62
2018-06-23T15:06:23.185Z,2.22
2018-06-23T15:09:03.236Z,2.50
2018-06-23T15:11:43.141Z,2.50
2018-06-23T15:14:12.392Z,2.83
2018-06-23T15:16:41.472Z,1.92
2018-06-23T15:19:10.615Z,1.52
2018-06-23T15:21:40.234Z,1.98
2018-06-23T15:24:09.192Z,2.08
2018-06-23T15:26:38.308Z,2.10
2018-06-23T15:29:07.501Z,2.30
2018-06-23T15:31:36.420Z,2.30
2018-06-23T15:34:05.640Z,2.08
2018-06-23T15:36:35.729Z,1.77
2018-06-23T15:39:07.113Z,2.10
2018-06-23T15:41:36.156Z,1.70
2018-06-23T15:44:05.216Z,1.52
2018-06-23T15:46:34.659Z,1.95
2018-06-23T15:49:03.933Z,1.70
2018-06-23T15:51:32.897Z,1.90
2018-06-23T15:54:04.139Z,1.42
2018-06-23T15:56:33.228Z,1.60
2018-06-23T15:59:02.414Z,1.65
2018-06-23T16:01:31.456Z,2.12
2018-06-23T16:04:02.485Z,1.70
2018-06-23T16:06:31.565Z,1.52
2018-06-23T16:09:00.637Z,1.80
2018-06-23T16:11:29.801Z,1.70
2018-06-23T16:13:58.905Z,1.67
2018-06-23T16:16:28.016Z,1.80
2018-06-23T16:18:57.124Z,1.72
2018-06-23T16:21:27.049Z,2.22
2018-06-23T16:23:56.017Z,1.80
2018-06-23T16:26:25.219Z,1.72
2018-06-23T16:28:54.279Z,1.60
2018-06-23T16:31:23.421Z,2.10
2018-06-23T16:33:52.465Z,1.90
2018-06-23T16:36:21.478Z,1.65
2018-06-23T16:38:50.739Z,1.55
2018-06-23T16:41:19.686Z,1.52
2018-06-23T16:43:48.726Z,1.77
2018-06-23T16:46:17.917Z,1.67
2018-06-23T16:48:46.876Z,1.30
2018-06-23T16:51:15.865Z,1.30
2018-06-23T16:53:44.976Z,1.30
2018-06-23T16:56:14.131Z,1.12
2018-06-23T16:58:43.108Z,1.05
2018-06-23T17:01:12.747Z,1.20
2018-06-23T17:03:41.878Z,1.20
2018-06-23T17:06:10.826Z,1.20
2018-06-23T17:08:40.222Z,0.90
2018-06-23T17:11:10.329Z,0.98
2018-06-23T17:13:39.838Z,1.12
2018-06-23T17:16:09.565Z,1.40
2018-06-23T17:18:39.112Z,1.07
2018-06-23T17:21:08.266Z,1.27
2018-06-23T17:23:37.642Z,1.00
2018-06-23T17:26:08.686Z,1.20
2018-06-23T17:28:38.240Z,1.25
2018-06-23T17:31:07.185Z,1.35
2018-06-23T17:33:37.236Z,1.37
2018-06-23T17:36:06.326Z,1.60
2018-06-23T17:38:35.413Z,1.45
2018-06-23T17:41:04.495Z,1.40
2018-06-23T17:43:33.692Z,1.53
2018-06-23T17:46:02.614Z,1.70
2018-06-23T17:48:31.744Z,1.70
2018-06-23T17:51:00.806Z,1.70
2018-06-23T17:53:29.957Z,1.40
2018-06-23T17:55:59.031Z,1.10
2018-06-23T17:58:28.151Z,1.37
2018-06-23T18:00:57.236Z,1.20
2018-06-23T18:03:26.242Z,1.20
2018-06-23T18:05:55.850Z,1.00
2018-06-23T18:08:25.159Z,1.00
2018-06-23T18:10:54.205Z,1.40
2018-06-23T18:13:23.344Z,1.00
2018-06-23T18:15:52.313Z,1.10
2018-06-23T18:18:21.332Z,1.73
2018-06-23T18:20:51.071Z,1.33
2018-06-23T18:23:20.054Z,1.47
2018-06-23T18:25:49.223Z,1.80
2018-06-23T18:28:18.164Z,2.20
2018-06-23T18:30:47.067Z,1.40
2018-06-23T18:33:16.116Z,1.47
2018-06-23T18:35:45.635Z,1.97
2018-06-23T18:38:14.577Z,1.43
2018-06-23T18:40:43.689Z,1.50
2018-06-23T18:43:12.859Z,1.33
2018-06-23T18:45:41.909Z,1.23
2018-06-23T18:48:10.940Z,1.20
2018-06-23T18:50:40.179Z,1.27
2018-06-23T18:53:10.290Z,1.50
2018-06-23T18:55:40.738Z,1.83
2018-06-23T18:58:09.887Z,2.30
2018-06-23T19:00:38.965Z,1.87
2018-06-23T19:03:08.092Z,2.50
2018-06-23T19:05:37.083Z,2.00
2018-06-23T19:08:06.325Z,1.90
2018-06-23T19:10:35.900Z,2.10
2018-06-23T19:13:05.014Z,2.37
2018-06-23T19:15:34.182Z,1.43
2018-06-23T19:18:04.989Z,1.80
2018-06-23T19:20:34.244Z,2.00
2018-06-23T19:23:03.649Z,1.70
2018-06-23T19:25:32.751Z,1.87
2018-06-23T19:28:01.656Z,1.80
2018-06-23T19:30:30.744Z,1.60
2018-06-23T19:33:00.059Z,1.70
2018-06-23T19:35:29.230Z,1.90
2018-06-23T19:37:58.501Z,1.93
2018-06-23T19:40:27.517Z,2.50
2018-06-23T19:42:56.537Z,2.43
2018-06-23T19:45:25.615Z,3.73
2018-06-23T19:47:54.825Z,5.10
2018-06-23T19:50:23.895Z,3.03
2018-06-23T19:52:52.938Z,2.87
2018-06-23T19:55:22.567Z,2.40
2018-06-23T19:57:51.441Z,2.10
2018-06-23T20:00:20.445Z,2.80
2018-06-23T20:02:50.035Z,2.07
2018-06-23T20:05:18.941Z,2.20
2018-06-23T20:07:47.857Z,2.33
2018-06-23T20:10:17.155Z,2.40
2018-06-23T20:12:46.189Z,1.80
2018-06-23T20:15:16.392Z,2.27
2018-06-23T20:17:45.810Z,2.20
2018-06-23T20:20:14.686Z,2.57
2018-06-23T20:22:43.805Z,2.27
2018-06-23T20:25:13.104Z,2.03
2018-06-23T20:27:42.031Z,2.20
2018-06-23T20:30:11.160Z,3.43
2018-06-23T20:32:40.745Z,4.47
2018-06-23T20:35:09.836Z,2.23
2018-06-23T20:37:39.720Z,2.37
2018-06-23T20:40:09.082Z,3.70
2018-06-23T20:42:37.961Z,2.33
2018-06-23T20:45:07.324Z,2.13
2018-06-23T20:47:37.790Z,2.53
2018-06-23T20:50:06.802Z,2.30
2018-06-23T20:52:35.883Z,1.90
2018-06-23T20:55:05.484Z,2.37
2018-06-23T20:57:34.341Z,2.00
2018-06-23T21:00:03.376Z,2.60
2018-06-23T21:02:32.405Z,2.40
2018-06-23T21:05:01.528Z,2.00
2018-06-23T21:07:30.566Z,2.17
2018-06-23T21:09:59.872Z,2.13
2018-06-23T21:12:28.992Z,2.57
2018-06-23T21:14:58.227Z,2.10
2018-06-23T21:17:27.500Z,2.40
2018-06-23T21:19:56.475Z,2.67
2018-06-23T21:22:25.639Z,2.37
2018-06-23T21:24:54.824Z,2.20
2018-06-23T21:27:23.919Z,2.20
2018-06-23T21:29:53.053Z,1.80
2018-06-23T21:32:22.625Z,2.13
2018-06-23T21:34:51.769Z,2.83
2018-06-23T21:37:20.851Z,2.23
2018-06-23T21:39:50.400Z,2.43
2018-06-23T21:42:19.421Z,2.10
2018-06-23T21:44:48.423Z,2.23
2018-06-23T21:47:19.420Z,2.20
2018-06-23T21:49:48.498Z,2.40
2018-06-23T21:52:17.541Z,2.20
2018-06-23T21:54:46.980Z,1.80
2018-06-23T21:57:15.923Z,2.07
2018-06-23T21:59:45.007Z,2.00
2018-06-23T22:02:14.661Z,2.33
2018-06-23T22:04:43.651Z,2.27
2018-06-23T22:07:12.745Z,2.20
2018-06-23T22:09:42.364Z,2.47
2018-06-23T22:12:11.280Z,2.20
2018-06-23T22:14:40.373Z,2.17
2018-06-23T22:17:09.924Z,2.30
2018-06-23T22:19:39.082Z,2.30
2018-06-23T22:22:08.298Z,2.33
2018-06-23T22:24:37.747Z,2.13
2018-06-23T22:27:06.751Z,2.17
2018-06-23T22:29:35.780Z,2.33
2018-06-23T22:32:05.219Z,2.30
2018-06-23T22:34:34.235Z,2.57
2018-06-23T22:37:03.359Z,2.50
2018-06-23T22:39:32.905Z,2.13
2018-06-23T22:42:01.869Z,2.60
2018-06-23T22:44:31.004Z,2.83
2018-06-23T22:47:00.477Z,2.97
2018-06-23T22:49:29.588Z,2.40
2018-06-23T22:51:58.606Z,2.20
2018-06-23T22:54:28.075Z,2.40
2018-06-23T22:56:57.054Z,2.00
2018-06-23T22:59:26.098Z,2.27
2018-06-23T23:01:55.319Z,2.30
2018-06-23T23:04:24.262Z,2.30
2018-06-23T23:06:53.174Z,2.30
2018-06-23T23:09:22.793Z,2.10
2018-06-23T23:11:51.811Z,2.27
2018-06-23T23:14:20.980Z,2.20
2018-06-23T23:16:49.939Z,2.20
2018-06-23T23:19:19.759Z,2.30
2018-06-23T23:21:48.761Z,2.60
2018-06-23T23:24:18.216Z,2.63
2018-06-23T23:26:47.116Z,2.13
2018-06-23T23:29:16.039Z,2.40
2018-06-23T23:31:45.520Z,2.50
2018-06-23T23:34:14.502Z,2.40
2018-06-23T23:36:43.643Z,2.33
2018-06-23T23:39:12.765Z,2.60
2018-06-23T23:41:41.897Z,2.50
2018-06-23T23:44:10.954Z,2.80
2018-06-23T23:46:39.997Z,2.37
2018-06-23T23:49:09.016Z,2.47
2018-06-23T23:51:38.072Z,2.30
2018-06-23T23:54:07.224Z,2.20
2018-06-23T23:56:36.255Z,2.40
2018-06-23T23:59:05.310Z,2.53
